createdAt,value
2017-11-23T00:00:27.952Z,10.82
2017-11-23T00:02:55.516Z,14.35
2017-11-23T00:05:23.081Z,13.82
2017-11-23T00:07:50.655Z,13.32
2017-11-23T00:10:18.203Z,10.55
2017-11-23T00:12:45.768Z,12.18
2017-11-23T00:15:13.346Z,13.93
2017-11-23T00:17:40.924Z,20.70
2017-11-23T00:20:09.243Z,13.77
2017-11-23T00:22:36.835Z,12.52
2017-11-23T00:25:04.388Z,12.43
2017-11-23T00:27:31.974Z,11.60
2017-11-23T00:29:59.554Z,10.82
2017-11-23T00:32:27.118Z,15.43
2017-11-23T00:34:54.691Z,16.42
2017-11-23T00:37:22.276Z,11.02
2017-11-23T00:39:49.840Z,14.02
2017-11-23T00:42:17.424Z,18.48
2017-11-23T00:44:45.006Z,13.80
2017-11-23T00:47:13.338Z,15.98
2017-11-23T00:49:40.909Z,14.52
2017-11-23T00:52:08.483Z,11.48
2017-11-23T00:54:36.092Z,15.73
2017-11-23T00:57:03.662Z,14.27
2017-11-23T00:59:31.240Z,15.18
2017-11-23T01:01:58.795Z,18.52
2017-11-23T01:04:26.355Z,10.20
2017-11-23T01:06:54.007Z,13.93
2017-11-23T01:09:21.584Z,13.95
2017-11-23T01:11:49.171Z,13.55
2017-11-23T01:14:16.731Z,11.70
2017-11-23T01:16:44.296Z,16.87
2017-11-23T01:19:11.856Z,14.27
2017-11-23T01:21:39.399Z,15.50
2017-11-23T01:24:07.028Z,15.77
2017-11-23T01:26:34.569Z,16.20
2017-11-23T01:29:02.129Z,14.73
2017-11-23T01:31:29.666Z,10.70
2017-11-23T01:33:59.103Z,11.38
2017-11-23T01:36:26.672Z,11.07
2017-11-23T01:38:54.214Z,20.77
2017-11-23T01:41:21.767Z,12.45
2017-11-23T01:43:49.321Z,13.50
2017-11-23T01:46:17.635Z,15.85
2017-11-23T01:48:45.173Z,13.15
2017-11-23T01:51:12.746Z,16.37
2017-11-23T01:53:40.317Z,16.62
2017-11-23T01:56:08.103Z,16.92
2017-11-23T01:58:35.654Z,14.65
2017-11-23T02:01:03.208Z,12.10
2017-11-23T02:03:30.789Z,14.70
2017-11-23T02:05:58.332Z,12.15
2017-11-23T02:08:25.929Z,16.15
2017-11-23T02:10:54.280Z,12.15
2017-11-23T02:13:21.868Z,11.98
2017-11-23T02:15:49.416Z,19.70
2017-11-23T02:18:17.006Z,19.48
2017-11-23T02:20:45.320Z,13.75
2017-11-23T02:23:12.911Z,16.75
2017-11-23T02:25:40.511Z,11.77
2017-11-23T02:28:08.860Z,16.60
2017-11-23T02:30:36.415Z,17.55
2017-11-23T02:33:04.004Z,17.10
2017-11-23T02:35:32.327Z,17.20
2017-11-23T02:37:59.877Z,13.57
2017-11-23T02:40:27.425Z,12.90
2017-11-23T02:42:54.983Z,13.73
2017-11-23T02:45:22.549Z,13.82
2017-11-23T02:47:50.103Z,13.90
2017-11-23T02:50:17.698Z,14.27
2017-11-23T02:52:45.277Z,11.27
2017-11-23T02:55:12.862Z,13.70
2017-11-23T02:57:41.184Z,12.70
2017-11-23T03:00:08.750Z,11.55
2017-11-23T03:02:36.299Z,14.68
2017-11-23T03:05:03.855Z,13.95
2017-11-23T03:07:31.448Z,15.52
2017-11-23T03:09:59.017Z,14.18
2017-11-23T03:12:26.579Z,15.30
2017-11-23T03:14:54.114Z,17.08
2017-11-23T03:17:21.670Z,15.07
2017-11-23T03:19:49.222Z,12.55
2017-11-23T03:22:16.783Z,13.00
2017-11-23T03:24:44.327Z,14.55
2017-11-23T03:27:11.904Z,14.45
2017-11-23T03:29:39.473Z,12.60
2017-11-23T03:32:07.114Z,12.43
2017-11-23T03:34:34.667Z,14.23
2017-11-23T03:37:02.244Z,15.00
2017-11-23T03:39:29.795Z,14.43
2017-11-23T03:41:58.128Z,14.82
2017-11-23T03:44:26.494Z,12.68
2017-11-23T03:46:54.047Z,12.70
2017-11-23T03:49:21.657Z,14.85
2017-11-23T03:51:49.237Z,15.45
2017-11-23T03:54:16.808Z,16.02
2017-11-23T03:56:44.357Z,15.93
2017-11-23T03:59:11.910Z,16.77
2017-11-23T04:01:39.499Z,12.88
2017-11-23T04:04:07.587Z,13.25
2017-11-23T04:06:35.151Z,11.32
2017-11-23T04:09:02.734Z,12.32
2017-11-23T04:11:31.088Z,14.18
2017-11-23T04:13:58.642Z,16.62
2017-11-23T04:16:26.221Z,13.20
2017-11-23T04:18:54.538Z,12.20
2017-11-23T04:21:22.108Z,14.20
2017-11-23T04:23:49.688Z,11.98
2017-11-23T04:26:17.247Z,13.00
2017-11-23T04:28:44.844Z,16.30
2017-11-23T04:31:13.158Z,13.23
2017-11-23T04:33:40.741Z,14.27
2017-11-23T04:36:08.299Z,14.95
2017-11-23T04:38:35.891Z,11.07
2017-11-23T04:41:04.225Z,14.75
2017-11-23T04:43:31.786Z,14.38
2017-11-23T04:45:59.358Z,13.48
2017-11-23T04:48:26.911Z,13.88
2017-11-23T04:50:54.471Z,21.95
2017-11-23T04:53:22.029Z,23.65
2017-11-23T04:55:49.577Z,14.73
2017-11-23T04:58:17.140Z,14.40
2017-11-23T05:00:44.727Z,17.10
2017-11-23T05:03:12.304Z,11.43
2017-11-23T05:05:39.869Z,13.50
2017-11-23T05:08:07.428Z,20.33
2017-11-23T05:10:34.959Z,13.65
2017-11-23T05:13:02.516Z,17.83
2017-11-23T05:15:30.083Z,14.32
2017-11-23T05:17:57.636Z,14.82
2017-11-23T05:20:25.205Z,16.08
2017-11-23T05:22:52.754Z,11.52
2017-11-23T05:25:20.289Z,12.00
2017-11-23T05:27:47.849Z,10.15
2017-11-23T05:30:15.418Z,15.80
2017-11-23T05:32:42.980Z,12.23
2017-11-23T05:35:10.612Z,10.10
2017-11-23T05:37:38.948Z,13.18
2017-11-23T05:40:06.527Z,16.90
2017-11-23T05:42:34.107Z,15.57
2017-11-23T05:45:02.422Z,13.55
2017-11-23T05:47:29.994Z,11.55
2017-11-23T05:49:57.638Z,14.95
2017-11-23T05:52:25.210Z,29.30
2017-11-23T05:54:52.763Z,26.37
2017-11-23T05:57:20.332Z,24.48
2017-11-23T05:59:47.923Z,26.60
2017-11-23T06:02:15.492Z,21.75
2017-11-23T06:04:43.839Z,19.95
2017-11-23T06:07:11.419Z,15.57
2017-11-23T06:09:38.992Z,16.02
2017-11-23T06:12:07.332Z,16.30
2017-11-23T06:14:34.895Z,15.13
2017-11-23T06:17:02.449Z,22.17
2017-11-23T06:19:30.011Z,25.45
2017-11-23T06:21:57.554Z,20.42
2017-11-23T06:24:25.126Z,15.95
2017-11-23T06:26:52.666Z,15.88
2017-11-23T06:29:20.224Z,17.48
2017-11-23T06:31:47.786Z,10.95
2017-11-23T06:34:15.346Z,15.10
2017-11-23T06:36:42.924Z,14.75
2017-11-23T06:39:10.484Z,12.50
2017-11-23T06:41:38.058Z,12.55
2017-11-23T06:44:05.613Z,9.80
2017-11-23T06:46:33.159Z,14.00
2017-11-23T06:49:00.720Z,16.23
2017-11-23T06:51:28.270Z,16.27
2017-11-23T06:53:55.811Z,8.27
2017-11-23T06:56:23.389Z,11.70
2017-11-23T06:58:50.916Z,10.35
2017-11-23T07:01:19.242Z,12.70
2017-11-23T07:03:46.820Z,12.40
2017-11-23T07:06:14.403Z,12.23
2017-11-23T07:08:41.942Z,10.10
2017-11-23T07:11:09.496Z,11.60
2017-11-23T07:13:37.066Z,12.73
2017-11-23T07:16:04.902Z,19.33
2017-11-23T07:18:32.475Z,14.65
2017-11-23T07:21:00.054Z,17.90
2017-11-23T07:23:27.637Z,15.18
2017-11-23T07:25:55.961Z,12.90
2017-11-23T07:28:23.516Z,15.70
2017-11-23T07:30:51.067Z,13.52
2017-11-23T07:33:18.626Z,15.15
2017-11-23T07:35:46.933Z,11.15
2017-11-23T07:38:14.500Z,15.23
2017-11-23T07:40:42.066Z,15.10
2017-11-23T07:43:09.648Z,14.82
2017-11-23T07:45:37.999Z,15.05
2017-11-23T07:48:05.559Z,13.90
2017-11-23T07:50:33.153Z,11.40
2017-11-23T07:53:01.477Z,12.35
2017-11-23T07:55:29.032Z,12.37
2017-11-23T07:57:56.588Z,14.43
2017-11-23T08:00:24.168Z,14.68
2017-11-23T08:02:51.720Z,17.17
2017-11-23T08:05:19.308Z,18.98
2017-11-23T08:07:47.628Z,18.58
2017-11-23T08:10:15.192Z,21.70
2017-11-23T08:12:42.788Z,17.95
2017-11-23T08:15:10.366Z,16.87
2017-11-23T08:17:38.719Z,17.65
2017-11-23T08:20:06.293Z,23.38
2017-11-23T08:22:33.846Z,15.80
2017-11-23T08:25:01.439Z,17.25
2017-11-23T08:27:29.758Z,13.70
2017-11-23T08:29:57.398Z,23.33
2017-11-23T08:32:24.983Z,20.05
2017-11-23T08:34:52.558Z,15.05
2017-11-23T08:37:20.101Z,20.80
2017-11-23T08:39:47.687Z,18.55
2017-11-23T08:42:15.245Z,19.37
2017-11-23T08:44:42.802Z,19.77
2017-11-23T08:47:10.376Z,19.65
2017-11-23T08:49:37.931Z,16.98
2017-11-23T08:52:05.550Z,17.95
2017-11-23T08:54:38.714Z,14.05
2017-11-23T08:57:06.282Z,16.30
2017-11-23T08:59:33.842Z,16.92
2017-11-23T09:02:01.432Z,24.70
2017-11-23T09:04:29.010Z,15.82
2017-11-23T09:06:56.575Z,17.87
2017-11-23T09:09:24.169Z,21.75
2017-11-23T09:11:52.494Z,17.42
2017-11-23T09:14:20.054Z,14.98
2017-11-23T09:16:47.659Z,13.18
2017-11-23T09:19:16.473Z,15.65
2017-11-23T09:21:44.112Z,17.58
2017-11-23T09:24:12.458Z,17.90
2017-11-23T09:26:40.195Z,15.48
2017-11-23T09:29:08.723Z,18.70
2017-11-23T09:31:37.292Z,18.55
2017-11-23T09:34:04.995Z,15.90
2017-11-23T09:36:33.437Z,16.67
2017-11-23T09:39:01.077Z,13.57
2017-11-23T09:41:29.450Z,13.43
2017-11-23T09:43:56.996Z,14.30
2017-11-23T09:46:24.565Z,15.50
2017-11-23T09:48:52.153Z,9.60
2017-11-23T09:51:19.709Z,14.03
2017-11-23T09:53:47.275Z,16.07
2017-11-23T09:56:14.839Z,15.10
2017-11-23T09:58:42.387Z,9.43
2017-11-23T10:01:09.933Z,13.27
2017-11-23T10:03:37.505Z,10.63
2017-11-23T10:06:05.060Z,15.90
2017-11-23T10:08:32.656Z,18.90
2017-11-23T10:11:00.207Z,15.67
2017-11-23T10:13:27.792Z,18.90
2017-11-23T10:15:56.111Z,29.93
2017-11-23T10:18:23.704Z,11.47
2017-11-23T10:20:51.271Z,15.33
2017-11-23T10:23:18.837Z,10.90
2017-11-23T10:25:46.398Z,10.63
2017-11-23T10:28:13.947Z,13.87
2017-11-23T10:30:41.517Z,10.90
2017-11-23T10:33:09.103Z,15.27
2017-11-23T10:35:37.423Z,16.70
2017-11-23T10:38:05.002Z,13.07
2017-11-23T10:40:32.565Z,12.77
2017-11-23T10:43:00.120Z,23.40
2017-11-23T10:45:27.687Z,14.23
2017-11-23T10:47:55.264Z,14.33
2017-11-23T10:50:23.608Z,12.30
2017-11-23T10:52:51.179Z,11.57
2017-11-23T10:55:18.731Z,10.60
2017-11-23T10:57:46.298Z,14.07
2017-11-23T11:00:13.852Z,12.23
2017-11-23T11:02:41.429Z,12.70
2017-11-23T11:05:08.982Z,10.47
2017-11-23T11:07:36.571Z,12.13
2017-11-23T11:10:04.898Z,20.27
2017-11-23T11:12:32.449Z,22.70
2017-11-23T11:15:00.032Z,15.30
2017-11-23T11:17:27.585Z,12.13
2017-11-23T11:19:55.150Z,11.37
2017-11-23T11:22:22.719Z,7.07
2017-11-23T11:24:50.336Z,8.17
2017-11-23T11:27:17.885Z,5.77
2017-11-23T11:29:45.468Z,8.60
2017-11-23T11:32:13.014Z,6.80
2017-11-23T11:34:40.618Z,4.33
2017-11-23T11:37:08.191Z,4.13
2017-11-23T11:39:35.769Z,6.37
2017-11-23T11:42:03.350Z,4.60
2017-11-23T11:44:31.713Z,5.93
2017-11-23T11:47:00.054Z,5.03
2017-11-23T11:49:27.611Z,8.73
2017-11-23T11:51:55.158Z,5.33
2017-11-23T11:54:22.693Z,7.10
2017-11-23T11:56:50.252Z,6.20
2017-11-23T11:59:18.563Z,4.93
2017-11-23T12:01:46.128Z,9.70
2017-11-23T12:04:13.672Z,6.90
2017-11-23T12:06:41.225Z,6.50
2017-11-23T12:09:08.778Z,10.80
2017-11-23T12:11:36.315Z,5.30
2017-11-23T12:14:16.578Z,6.80
2017-11-23T12:16:56.727Z,11.63
2017-11-23T12:19:36.993Z,5.60
2017-11-23T12:22:17.051Z,4.40
2017-11-23T12:24:57.182Z,7.57
2017-11-23T12:27:25.521Z,10.17
2017-11-23T12:30:04.906Z,5.00
2017-11-23T12:32:33.263Z,9.13
2017-11-23T12:35:00.841Z,7.10
2017-11-23T12:37:29.150Z,3.33
2017-11-23T12:39:56.714Z,7.63
2017-11-23T12:42:24.260Z,6.47
2017-11-23T12:44:52.586Z,4.97
2017-11-23T12:47:20.147Z,5.13
2017-11-23T12:49:47.715Z,5.93
2017-11-23T12:52:15.271Z,7.50
2017-11-23T12:54:42.855Z,3.60
2017-11-23T12:57:11.169Z,7.00
2017-11-23T12:59:38.718Z,5.40
2017-11-23T13:02:06.270Z,3.80
2017-11-23T13:04:34.593Z,3.60
2017-11-23T13:07:02.155Z,15.70
2017-11-23T13:09:29.724Z,4.53
2017-11-23T13:11:57.285Z,7.73
2017-11-23T13:14:24.828Z,10.83
2017-11-23T13:16:52.391Z,3.37
2017-11-23T13:19:19.936Z,7.03
2017-11-23T13:21:47.527Z,4.23
2017-11-23T13:24:15.061Z,4.30
2017-11-23T13:26:42.643Z,5.73
2017-11-23T13:29:10.186Z,4.50
2017-11-23T13:31:39.386Z,6.33
2017-11-23T13:34:06.959Z,9.80
2017-11-23T13:36:34.502Z,5.83
2017-11-23T13:39:02.057Z,6.13
2017-11-23T13:41:29.592Z,12.00
2017-11-23T13:43:57.167Z,5.30
2017-11-23T13:46:24.731Z,5.20
2017-11-23T13:48:52.333Z,10.43
2017-11-23T13:51:19.885Z,5.77
2017-11-23T13:53:47.500Z,5.40
2017-11-23T13:56:15.064Z,12.17
2017-11-23T13:58:42.648Z,8.50
2017-11-23T14:01:10.359Z,7.03
2017-11-23T14:03:38.671Z,5.60
2017-11-23T14:06:07.017Z,5.33
2017-11-23T14:08:35.398Z,8.47
2017-11-23T14:11:03.082Z,7.00
2017-11-23T14:13:30.671Z,8.20
2017-11-23T14:15:58.911Z,6.87
2017-11-23T14:18:27.254Z,8.30
2017-11-23T14:20:54.886Z,11.27
2017-11-23T14:23:23.752Z,5.33
2017-11-23T14:25:51.310Z,5.53
2017-11-23T14:28:18.940Z,5.27
2017-11-23T14:30:46.505Z,4.10
2017-11-23T14:33:14.113Z,4.37
2017-11-23T14:35:41.939Z,11.27
2017-11-23T14:38:10.098Z,6.17
2017-11-23T14:40:38.457Z,7.07
2017-11-23T14:43:06.556Z,3.57
2017-11-23T14:45:34.151Z,8.60
2017-11-23T14:48:02.482Z,11.93
2017-11-23T14:50:31.705Z,9.07
2017-11-23T14:52:59.367Z,7.87
2017-11-23T14:55:26.948Z,12.63
2017-11-23T14:57:54.513Z,7.40
2017-11-23T15:00:22.112Z,9.27
2017-11-23T15:02:49.691Z,4.30
2017-11-23T15:05:17.299Z,4.70
2017-11-23T15:07:44.900Z,5.77
2017-11-23T15:10:13.245Z,6.20
2017-11-23T15:12:40.815Z,7.30
2017-11-23T15:15:08.413Z,5.73
2017-11-23T15:17:36.750Z,7.70
2017-11-23T15:20:08.099Z,6.80
2017-11-23T15:22:36.438Z,8.30
2017-11-23T15:25:04.025Z,11.00
2017-11-23T15:27:31.589Z,6.30
2017-11-23T15:29:59.925Z,10.77
2017-11-23T15:32:27.502Z,6.27
2017-11-23T15:34:55.049Z,6.03
2017-11-23T15:37:22.643Z,7.67
2017-11-23T15:39:50.596Z,9.43
2017-11-23T15:42:18.172Z,5.37
2017-11-23T15:44:45.790Z,6.90
2017-11-23T15:47:13.361Z,4.33
2017-11-23T15:49:40.947Z,5.50
2017-11-23T15:52:08.519Z,4.90
2017-11-23T15:54:36.094Z,11.10
2017-11-23T15:57:04.445Z,7.70
2017-11-23T15:59:32.134Z,7.53
2017-11-23T16:02:00.502Z,6.50
2017-11-23T16:04:28.867Z,7.87
2017-11-23T16:06:56.474Z,6.47
2017-11-23T16:09:24.045Z,4.60
2017-11-23T16:11:51.595Z,6.87
2017-11-23T16:14:19.163Z,6.70
2017-11-23T16:16:46.714Z,7.27
2017-11-23T16:19:14.362Z,9.60
2017-11-23T16:21:42.703Z,8.07
2017-11-23T16:24:10.254Z,10.37
2017-11-23T16:26:37.830Z,10.40
2017-11-23T16:29:05.399Z,8.13
2017-11-23T16:31:32.946Z,6.93
2017-11-23T16:34:00.529Z,12.57
2017-11-23T16:36:29.380Z,6.37
2017-11-23T16:38:57.387Z,9.93
2017-11-23T16:41:25.736Z,10.73
2017-11-23T16:43:54.118Z,4.13
2017-11-23T16:46:27.488Z,11.53
2017-11-23T16:49:04.571Z,5.40
2017-11-23T16:51:47.007Z,15.23
2017-11-23T16:54:20.326Z,12.47
2017-11-23T16:56:54.419Z,12.70
2017-11-23T16:59:38.686Z,10.17
2017-11-23T17:02:11.840Z,7.57
2017-11-23T17:04:44.947Z,13.10
2017-11-23T17:07:13.327Z,11.20
2017-11-23T17:09:43.533Z,10.40
2017-11-23T17:12:27.772Z,23.67
2017-11-23T17:15:15.219Z,10.50
2017-11-23T17:17:45.293Z,6.10
2017-11-23T17:20:12.878Z,14.73
2017-11-23T17:22:40.433Z,9.33
2017-11-23T17:25:08.097Z,30.40
2017-11-23T17:27:35.657Z,10.97
2017-11-23T17:30:03.230Z,12.03
2017-11-23T17:32:30.803Z,14.10
2017-11-23T17:34:58.376Z,12.60
2017-11-23T17:37:25.956Z,9.17
2017-11-23T17:39:54.273Z,7.23
2017-11-23T17:42:21.863Z,13.80
2017-11-23T17:44:49.464Z,13.50
2017-11-23T17:47:17.839Z,12.50
2017-11-23T17:49:46.170Z,30.20
2017-11-23T17:52:13.758Z,10.23
2017-11-23T17:54:41.322Z,20.37
2017-11-23T17:57:08.918Z,13.47
2017-11-23T17:59:36.496Z,12.60
2017-11-23T18:02:04.100Z,19.47
2017-11-23T18:04:31.680Z,9.33
2017-11-23T18:07:00.012Z,17.07
2017-11-23T18:09:27.591Z,18.03
2017-11-23T18:11:55.171Z,13.67
2017-11-23T18:14:23.536Z,53.30
2017-11-23T18:16:51.118Z,17.93
2017-11-23T18:19:19.467Z,15.63
2017-11-23T18:21:47.060Z,16.73
2017-11-23T18:24:15.375Z,9.70
2017-11-23T18:26:42.988Z,9.80
2017-11-23T18:29:10.630Z,10.27
2017-11-23T18:31:38.218Z,16.10
2017-11-23T18:34:05.795Z,8.30
2017-11-23T18:36:35.812Z,19.00
2017-11-23T18:39:04.148Z,13.93
2017-11-23T18:41:31.716Z,18.13
2017-11-23T18:43:59.298Z,13.40
2017-11-23T18:46:27.647Z,16.23
2017-11-23T18:48:55.206Z,9.30
2017-11-23T18:51:22.821Z,17.50
2017-11-23T18:53:50.424Z,15.70
2017-11-23T18:56:17.984Z,17.07
2017-11-23T18:58:45.675Z,15.57
2017-11-23T19:01:16.724Z,27.47
2017-11-23T19:06:29.817Z,11.37
2017-11-23T19:09:05.103Z,11.13
2017-11-23T19:15:53.780Z,194.43
2017-11-23T19:18:21.388Z,172.20
2017-11-23T19:20:53.430Z,83.43
2017-11-23T19:25:56.776Z,14.03
2017-11-23T19:28:29.216Z,17.40
2017-11-23T19:30:57.809Z,19.37
2017-11-23T19:33:26.332Z,14.10
2017-11-23T19:35:55.612Z,14.80
2017-11-23T19:38:26.878Z,13.10
2017-11-23T19:40:55.446Z,14.30
2017-11-23T19:43:27.052Z,14.77
2017-11-23T19:48:43.152Z,13.27
2017-11-23T19:51:10.720Z,12.77
2017-11-23T19:53:38.330Z,16.27
2017-11-23T19:56:05.931Z,11.80
2017-11-23T19:58:34.188Z,12.40
2017-11-23T20:01:02.356Z,12.60
2017-11-23T20:03:31.210Z,9.37
2017-11-23T20:05:59.048Z,9.40
2017-11-23T20:08:28.601Z,7.93
2017-11-23T20:10:56.324Z,10.20
2017-11-23T20:13:24.652Z,6.63
2017-11-23T20:15:53.023Z,14.10
2017-11-23T20:18:21.241Z,16.20
2017-11-23T20:20:49.423Z,21.43
2017-11-23T20:23:17.325Z,13.57
2017-11-23T20:25:44.923Z,11.00
2017-11-23T20:28:13.072Z,11.60
2017-11-23T20:30:40.951Z,7.90
2017-11-23T20:33:08.666Z,10.40
2017-11-23T20:35:37.130Z,32.80
2017-11-23T20:38:04.986Z,15.00
2017-11-23T20:40:33.535Z,22.80
2017-11-23T20:43:01.221Z,8.13
2017-11-23T20:45:29.223Z,11.43
2017-11-23T20:47:57.663Z,10.50
2017-11-23T20:50:25.269Z,7.10
2017-11-23T20:52:52.921Z,8.30
2017-11-23T20:55:20.520Z,8.17
2017-11-23T20:57:52.340Z,5.93
2017-11-23T21:00:20.055Z,7.70
2017-11-23T21:02:47.825Z,9.90
2017-11-23T21:05:15.470Z,11.40
2017-11-23T21:07:43.110Z,9.83
2017-11-23T21:10:10.715Z,11.37
2017-11-23T21:12:39.763Z,12.53
2017-11-23T21:15:08.155Z,6.53
2017-11-23T21:17:36.820Z,10.23
2017-11-23T21:20:04.403Z,10.10
2017-11-23T21:22:32.889Z,6.13
2017-11-23T21:25:03.041Z,10.30
2017-11-23T21:27:30.991Z,7.80
2017-11-23T21:29:59.116Z,6.97
2017-11-23T21:32:28.827Z,5.90
2017-11-23T21:34:57.082Z,7.57
2017-11-23T21:37:25.543Z,11.23
2017-11-23T21:39:54.604Z,8.60
2017-11-23T21:42:22.990Z,12.67
2017-11-23T21:44:51.260Z,8.60
2017-11-23T21:47:22.912Z,7.43
2017-11-23T21:49:50.905Z,6.90
2017-11-23T21:52:19.098Z,5.73
2017-11-23T21:54:46.719Z,6.83
2017-11-23T21:57:14.285Z,10.53
2017-11-23T21:59:42.098Z,9.63
2017-11-23T22:02:11.675Z,9.70
2017-11-23T22:04:40.407Z,8.30
2017-11-23T22:07:08.290Z,6.43
2017-11-23T22:09:35.908Z,8.43
2017-11-23T22:12:04.211Z,7.97
2017-11-23T22:14:33.063Z,11.77
2017-11-23T22:17:01.783Z,7.17
2017-11-23T22:19:29.487Z,8.40
2017-11-23T22:21:57.478Z,7.57
2017-11-23T22:24:25.503Z,6.67
2017-11-23T22:26:53.294Z,10.20
2017-11-23T22:29:20.873Z,8.17
2017-11-23T22:31:49.737Z,10.53
2017-11-23T22:34:17.514Z,7.00
2017-11-23T22:36:45.088Z,6.73
2017-11-23T22:39:13.431Z,7.10
2017-11-23T22:41:41.024Z,8.33
2017-11-23T22:44:08.571Z,9.80
2017-11-23T22:46:36.186Z,9.50
2017-11-23T22:49:03.758Z,9.10
2017-11-23T22:51:32.116Z,10.43
2017-11-23T22:53:59.691Z,8.80
2017-11-23T22:56:27.285Z,13.30
2017-11-23T22:58:55.627Z,8.63
2017-11-23T23:01:23.219Z,7.20
2017-11-23T23:03:50.791Z,7.97
2017-11-23T23:06:18.354Z,6.87
2017-11-23T23:08:45.936Z,7.40
2017-11-23T23:11:14.288Z,8.73
2017-11-23T23:13:41.857Z,9.77
2017-11-23T23:16:09.427Z,11.90
2017-11-23T23:18:37.829Z,20.60
2017-11-23T23:21:05.422Z,10.43
2017-11-23T23:23:33.008Z,7.10
2017-11-23T23:26:00.583Z,6.53
2017-11-23T23:28:28.929Z,7.90
2017-11-23T23:30:56.490Z,9.33
2017-11-23T23:33:24.072Z,9.23
2017-11-23T23:35:51.643Z,6.60
2017-11-23T23:38:19.986Z,6.70
2017-11-23T23:40:47.558Z,9.60
2017-11-23T23:43:15.127Z,4.80
2017-11-23T23:45:42.735Z,8.77
2017-11-23T23:48:10.289Z,5.17
2017-11-23T23:50:37.845Z,12.33
2017-11-23T23:53:05.421Z,5.80
2017-11-23T23:55:32.998Z,6.10
2017-11-23T23:58:00.573Z,6.37
